createdAt,value
2017-08-10T16:07:51.143Z,44.45
2017-08-10T16:10:18.717Z,45.24
2017-08-10T16:12:46.209Z,42.13
2017-08-10T16:15:13.734Z,41.93
2017-08-10T16:17:41.287Z,43.92
2017-08-10T16:20:08.904Z,43.31
2017-08-10T16:22:36.440Z,42.15
2017-08-10T16:25:03.925Z,41.20
2017-08-10T16:27:31.437Z,41.16
2017-08-10T16:29:58.965Z,41.27
2017-08-10T16:32:26.473Z,41.53
2017-08-10T16:34:54.027Z,41.73
2017-08-10T16:37:21.564Z,41.96
2017-08-10T16:39:49.067Z,42.10
2017-08-10T16:42:16.601Z,43.78
2017-08-10T16:44:44.286Z,43.30
2017-08-10T16:47:11.818Z,43.58
2017-08-10T16:49:39.379Z,43.55
2017-08-10T16:52:06.957Z,44.24
2017-08-10T16:54:34.516Z,44.07
2017-08-10T16:57:02.002Z,44.30
2017-08-10T16:59:29.688Z,44.41
2017-08-10T17:01:57.198Z,44.45
2017-08-10T17:04:24.753Z,44.39
2017-08-10T17:06:52.272Z,44.18
2017-08-10T17:09:19.770Z,44.65
2017-08-10T17:11:47.336Z,45.23
2017-08-10T17:14:14.944Z,45.30
2017-08-10T17:16:42.511Z,45.73
2017-08-10T17:19:10.072Z,45.78
2017-08-10T17:21:37.669Z,45.80
2017-08-10T17:24:05.188Z,45.93
2017-08-10T17:26:32.686Z,46.27
2017-08-10T17:29:00.254Z,46.14
2017-08-10T17:31:27.792Z,46.30
2017-08-10T17:33:55.301Z,46.00
2017-08-10T17:36:22.838Z,46.52
2017-08-10T17:38:50.325Z,46.65
2017-08-10T17:41:17.832Z,46.36
2017-08-10T17:43:45.441Z,46.95
2017-08-10T17:46:12.997Z,46.79
2017-08-10T17:48:40.548Z,46.59
2017-08-10T17:51:08.081Z,46.13
2017-08-10T17:53:35.620Z,46.61
2017-08-10T17:56:03.109Z,46.55
2017-08-10T17:58:30.632Z,46.82
2017-08-10T18:01:00.143Z,46.55
2017-08-10T18:03:25.862Z,46.88
2017-08-10T18:05:53.482Z,46.61
2017-08-10T18:08:20.986Z,46.76
2017-08-10T18:10:48.471Z,46.83
2017-08-10T18:13:16.098Z,46.71
2017-08-10T18:15:43.656Z,46.92
2017-08-10T18:18:11.213Z,47.17
2017-08-10T18:20:38.742Z,47.37
2017-08-10T18:23:06.388Z,47.51
2017-08-10T18:25:33.987Z,47.75
2017-08-10T18:28:01.514Z,48.26
2017-08-10T18:30:29.032Z,48.66
2017-08-10T18:32:56.536Z,48.91
2017-08-10T18:35:24.073Z,49.18
2017-08-10T18:37:51.581Z,49.44
2017-08-10T18:40:19.094Z,49.73
2017-08-10T18:42:46.707Z,49.95
2017-08-10T18:45:14.684Z,50.07
2017-08-10T18:47:42.165Z,50.23
2017-08-10T18:50:09.682Z,50.50
2017-08-10T18:52:37.235Z,50.40
2017-08-10T18:55:04.717Z,50.41
2017-08-10T18:57:35.929Z,50.47
2017-08-10T19:00:14.075Z,50.69
2017-08-10T19:02:41.659Z,50.70
2017-08-10T19:05:09.264Z,50.82
2017-08-10T19:07:36.759Z,50.88
2017-08-10T19:10:04.295Z,51.00
2017-08-10T19:12:31.803Z,51.22
2017-08-10T19:14:59.312Z,51.08
2017-08-10T19:17:26.899Z,51.29
2017-08-10T19:19:54.525Z,51.19
2017-08-10T19:22:22.035Z,51.37
2017-08-10T19:24:49.616Z,51.25
2017-08-10T19:27:17.181Z,51.17
2017-08-10T19:29:44.665Z,50.91
2017-08-10T19:32:12.215Z,51.06
2017-08-10T19:34:40.961Z,50.96
2017-08-10T19:37:08.554Z,51.09
2017-08-10T19:39:36.828Z,50.92
2017-08-10T19:42:04.319Z,50.96
2017-08-10T19:44:31.814Z,51.08
2017-08-10T19:46:59.340Z,51.23
2017-08-10T19:49:26.822Z,51.09
2017-08-10T19:51:54.309Z,50.96
2017-08-10T19:54:22.274Z,50.95
2017-08-10T19:56:49.767Z,51.02
2017-08-10T19:59:17.250Z,51.00
2017-08-10T20:01:44.778Z,50.97
2017-08-10T20:04:12.266Z,51.03
2017-08-10T20:06:39.784Z,51.04
2017-08-10T20:09:08.306Z,51.03
2017-08-10T20:11:35.806Z,51.30
2017-08-10T20:14:03.325Z,51.29
2017-08-10T20:16:30.915Z,51.31
2017-08-10T20:18:58.492Z,51.34
2017-08-10T20:21:26.019Z,51.29
2017-08-10T20:23:53.582Z,51.34
2017-08-10T20:26:21.060Z,51.45
2017-08-10T20:28:48.610Z,51.65
2017-08-10T20:31:16.199Z,51.32
2017-08-10T20:33:43.751Z,51.01
2017-08-10T20:36:11.243Z,51.00
2017-08-10T20:38:38.860Z,51.11
2017-08-10T20:41:06.364Z,51.32
2017-08-10T20:43:33.877Z,51.36
2017-08-10T20:46:01.475Z,51.13
2017-08-10T20:48:28.956Z,51.03
2017-08-10T20:50:57.134Z,50.82
2017-08-10T20:53:24.676Z,50.43
2017-08-10T20:55:52.490Z,50.43
2017-08-10T20:58:20.789Z,50.38
2017-08-10T21:00:49.342Z,50.36
2017-08-10T21:03:16.845Z,50.46
2017-08-10T21:05:44.358Z,50.59
2017-08-10T21:08:11.896Z,50.55
2017-08-10T21:10:39.400Z,50.42
2017-08-10T21:13:06.940Z,50.51
2017-08-10T21:15:34.487Z,50.79
2017-08-10T21:18:02.050Z,50.92
2017-08-10T21:20:29.556Z,51.11
2017-08-10T21:22:57.088Z,51.32
2017-08-10T21:25:24.652Z,51.49
2017-08-10T21:27:52.133Z,51.59
2017-08-10T21:30:19.892Z,51.74
2017-08-10T21:32:47.444Z,51.86
2017-08-10T21:35:14.922Z,52.09
2017-08-10T21:37:42.503Z,52.17
2017-08-10T21:40:10.004Z,52.33
2017-08-10T21:42:37.551Z,52.35
2017-08-10T21:45:05.161Z,52.41
2017-08-10T21:47:32.668Z,52.56
2017-08-10T21:50:00.154Z,52.71
2017-08-10T21:52:27.753Z,52.83
2017-08-10T21:54:55.324Z,52.97
2017-08-10T21:57:22.840Z,53.31
2017-08-10T21:59:50.390Z,53.20
2017-08-10T22:02:17.896Z,53.21
2017-08-10T22:04:45.386Z,53.38
2017-08-10T22:07:12.901Z,53.62
2017-08-10T22:09:40.406Z,53.68
2017-08-10T22:12:07.905Z,53.78
2017-08-10T22:14:35.425Z,53.61
2017-08-10T22:17:02.901Z,53.55
2017-08-10T22:19:30.414Z,53.54
2017-08-10T22:21:57.964Z,53.58
2017-08-10T22:24:25.446Z,53.64
2017-08-10T22:26:53.054Z,53.59
2017-08-10T22:29:20.648Z,53.41
2017-08-10T22:31:48.149Z,53.52
2017-08-10T22:34:15.703Z,53.70
2017-08-10T22:36:43.231Z,53.83
2017-08-10T22:39:10.734Z,54.10
2017-08-10T22:41:38.288Z,54.22
2017-08-10T22:44:05.812Z,54.12
2017-08-10T22:46:33.320Z,54.17
2017-08-10T22:49:00.880Z,54.30
2017-08-10T22:51:28.975Z,54.31
2017-08-10T22:53:56.502Z,54.42
2017-08-10T22:56:24.754Z,54.25
2017-08-10T22:58:53.209Z,54.22
2017-08-10T23:01:20.692Z,54.15
2017-08-10T23:03:48.197Z,54.16
2017-08-10T23:06:16.592Z,54.14
2017-08-10T23:08:44.086Z,54.05
2017-08-10T23:11:11.602Z,53.89
2017-08-10T23:13:39.140Z,53.92
2017-08-10T23:16:06.636Z,53.51
2017-08-10T23:18:34.191Z,53.34
2017-08-10T23:21:01.735Z,53.30
2017-08-10T23:23:29.284Z,53.58
2017-08-10T23:25:56.835Z,53.34
2017-08-10T23:28:24.427Z,53.28
2017-08-10T23:30:51.919Z,53.26
2017-08-10T23:33:19.536Z,52.89
2017-08-10T23:35:47.130Z,52.50
2017-08-10T23:38:14.715Z,52.22
2017-08-10T23:40:43.357Z,52.02
2017-08-10T23:43:10.894Z,51.69
2017-08-10T23:45:38.407Z,51.54
2017-08-10T23:48:06.015Z,51.35
2017-08-10T23:50:33.570Z,51.24
2017-08-10T23:53:01.243Z,51.12
2017-08-10T23:55:29.058Z,50.93
2017-08-10T23:57:56.644Z,50.72
